Airfield :







YOU CAN JOIN US ON...

 
LOGIN :

Register | Disclaimer

   EN    FR    IT 

 









Legend :    VFR   Marginal VFR   IFR   Intensive IFR   Very Intensive IFR
Visi :
Ceiling :
>= 8 km
>= 3000ft
5 to 8 km
1000 to 3000 ft
1500m to 5 km
500 to 1000 ft
800 to 1500m
200 to 500 ft
< 800m
< 200 ft
Symbols :   Thunderstorms  Fog  Heavy snow  Heavy precipitations  Wind > 20 kt






- Airport Elevation : 192 ft
- IATA code : BGR


KBGR - Bangor International

CURRENT METAR :
  • 201453Z 00000KT 10SM BKN027 BKN034 19/13 A3003 RMK AO2 SLP168 T01940128 58006

EXPIRED METARs :
  • 201353Z VRB03KT 10SM OVC020 17/12 A3005 RMK AO2 SLP175 BINOVC T01720122
  • 201253Z 00000KT 10SM BKN014 16/12 A3006 RMK AO2 SLP178 T01610117
  • 201153Z 00000KT 10SM BKN012 14/12 A3005 RMK AO2 SLP175 T01440117 10144 20106 58001
  • 201053Z 14003KT 10SM BKN013 12/11 A3006 RMK AO2 SLP177 T01220111

TAF KBGR
Valid from the 20 at 12:00 until the 21 at 12:00 UTC


201120Z 2012/2112 15003KT P6SM BKN015
FM201500 17006KT P6SM SCT030
FM210600 20003KT 2SM BR BKN005
KZBW FIR / North America



MET'MAP, your aeronautical weather chart ! - Copyright ORBIFLY December 2007 - Disclaimer

ORBIFLY MET'MAP TEAM :

Programming & Development : Alexandra Zaïnal
Original concept : Baudouin d'Aumeries
Technical & hardware support : Manuel Goepfert
Assistance : Marc-Olivier Méhu




SOURCES & CREDITS :

   NOAA